• Join FlightAware (Why Join?)
  • Login
  • US Flag 
06:10AM EDT


 

Airport Tracker/Info


-or-


 

Live Flight TrackerFlight Track Log ✈ N865JM ✈ 14-Oct-2013 ✈ KPBI - KHPN

Flight Track Log - Related Links

Times and Time Zones

All times are in EDT time to prevent confusion due to time zone crossing. See the N865JM flight status page for this flight to view local times or setup timezone preferences in your user account.

Time Position Orientation Groundspeed Altitude Reporting Facility
EDT Latitude Longitude Course Direction KTS MPH feet Rate Location/Type
07:35PM 26.7672 -80.0000 329° Northwest 242 278 7,100  Level Miami Center
07:36PM 26.8225 -80.0528 320° Northwest 221 254 10,300 2,640 Climbing Miami Center
07:37PM 26.8331 -80.1414 278° West 245 282 13,000 2,340 Climbing Miami Center
07:38PM 26.8550 -80.2725 281° West 315 362 15,500 2,520 Climbing Miami Center
07:39PM 27.1085 -80.3668 329° Northwest  Level FlightAware Approximate
07:39PM 26.8947 -80.3644 296° West 329 379 18,100  Level Miami Center
07:40PM 26.9731 -80.4064 334° Northwest 309 356 20,900 2,280 Climbing Miami Center
07:41PM 27.0492 -80.4531 331° Northwest 303 349 22,700 1,560 Climbing Miami Center
07:42PM 27.1314 -80.4975 334° Northwest 309 356 24,100 1,440 Climbing Miami Center
07:43PM 27.2203 -80.5331 340° North 325 374 25,600 1,260 Climbing Miami Center
07:44PM 27.3114 -80.5711 340° North 339 390 26,700 1,140 Climbing Miami Center
07:45PM 27.4064 -80.6092 340° North 353 406 27,900 1,080 Climbing Miami Center
07:46PM 27.5056 -80.6497 340° North 365 420 28,900 960 Climbing Miami Center
07:47PM 27.6044 -80.6931 339° North 370 426 29,900 960 Climbing Miami Center
07:48PM 27.7017 -80.7314 341° North 370 426 30,900 960 Climbing Miami Center
07:49PM 27.7944 -80.7697 340° North 370 426 31,900 900 Climbing Miami Center
07:50PM 27.8917 -80.8083 341° North 376 433 32,800 960 Climbing Miami Center
07:51PM 27.9925 -80.8517 339° North 376 433 33,900 1,020 Climbing Miami Center
07:52PM 28.0875 -80.8881 341° North 376 433 34,900 900 Climbing Miami Center
07:53PM 28.1867 -80.9292 340° North 376 433 35,800 840 Climbing Miami Center
07:54PM 28.2836 -80.9706 339° North 371 427 36,600 420 Climbing Miami Center
07:55PM 28.4561 -81.0486 338° Northwest 384 442 37,000 120 Climbing Jacksonville Center
07:56PM 28.5525 -81.0894 340° North 384 442 37,000  Level Jacksonville Center
07:57PM 28.6492 -81.1300 340° North 379 436 37,000  Level Jacksonville Center
07:58PM 28.7456 -81.1711 339° North 373 429 37,000  Level Jacksonville Center
07:59PM 28.8422 -81.2119 340° North 373 429 37,000  Level Jacksonville Center
08:00PM 28.9386 -81.2508 341° North 373 429 37,000  Level Jacksonville Center
08:01PM 29.0333 -81.2944 338° Northwest 367 422 37,000  Level Jacksonville Center
08:02PM 29.1275 -81.3356 339° North 363 418 37,000  Level Jacksonville Center
08:03PM 29.2261 -81.3722 342° North 362 417 37,000  Level Jacksonville Center
08:04PM 29.3061 -81.4136 336° Northwest 361 415 37,000  Level Jacksonville Center
08:05PM 29.4083 -81.4242 355° North 364 419 37,000  Level Jacksonville Center
08:06PM 29.5108 -81.4322 356° North 364 419 37,000  Level Jacksonville Center
08:07PM 29.6153 -81.4425 355° North 369 425 37,000  Level Jacksonville Center
08:08PM 29.7156 -81.4506 356° North 369 425 37,000  Level Jacksonville Center
08:09PM 29.8178 -81.4467 North 369 425 37,000  Level Jacksonville Center
08:10PM 29.9175 -81.3997 22° Northeast 364 419 37,000  Level Jacksonville Center
08:11PM 30.0128 -81.3456 26° Northeast 374 430 37,000  Level Jacksonville Center
08:12PM 30.1103 -81.2911 26° Northeast 379 436 37,000  Level Jacksonville Center
08:13PM 30.2078 -81.2342 27° Northeast 384 442 37,000  Level Jacksonville Center
08:14PM 30.3050 -81.1769 27° Northeast 384 442 37,000  Level Jacksonville Center
08:15PM 30.4150 -81.1150 26° Northeast 384 442 37,000  Level Jacksonville Center
08:16PM 30.5122 -81.0625 25° Northeast 384 442 37,000  Level Jacksonville Center
08:17PM 30.6033 -81.0075 27° Northeast 379 436 37,000  Level Jacksonville Center
08:18PM 30.7006 -80.9525 26° Northeast 379 436 37,000  Level Jacksonville Center
08:19PM 30.7958 -80.8975 26° Northeast 379 436 37,000  Level Jacksonville Center
08:20PM 30.8931 -80.8397 27° Northeast 379 436 37,000  Level Jacksonville Center
08:21PM 30.9903 -80.7842 26° Northeast 379 436 37,000  Level Jacksonville Center
08:22PM 31.0875 -80.7286 27° Northeast 379 436 37,000  Level Jacksonville Center
08:23PM 31.0968 -80.7197 27° Northeast  Level FlightAware Approximate
08:23PM 31.1825 -80.6731 27° Northeast 379 436 37,000  Level Jacksonville Center
08:24PM 31.2817 -80.6172 26° Northeast 379 436 37,000  Level Jacksonville Center
08:25PM 31.3747 -80.5589 28° Northeast 379 436 37,000  Level Jacksonville Center
08:27PM 31.4808 -80.4931 28° Northeast  Level FlightAware Approximate
08:27PM 31.5689 -80.4469 28° Northeast 384 442 37,000  Level Jacksonville Center
08:28PM 31.6636 -80.3883 28° Northeast 378 435 37,000  Level Jacksonville Center
08:29PM 31.7606 -80.3294 27° Northeast 378 435 37,000  Level Jacksonville Center
08:30PM 31.8556 -80.2756 26° Northeast 378 435 37,000  Level Jacksonville Center
08:31PM 31.9503 -80.2164 28° Northeast 384 442 37,000  Level Jacksonville Center
08:32PM 32.0453 -80.1597 27° Northeast 385 443 37,000  Level Jacksonville Center
08:33PM 32.1400 -80.1031 27° Northeast 378 435 37,000  Level Jacksonville Center
08:34PM 32.1449 -80.0771 28° Northeast  Level FlightAware Approximate
08:34PM 32.2328 -80.0486 26° Northeast 371 427 37,000  Level Jacksonville Center
08:35PM 32.2396 -80.0171 28° Northeast  Level FlightAware Approximate
08:35PM 32.3275 -79.9892 28° Northeast 371 427 37,000  Level Jacksonville Center
08:36PM 32.4200 -79.9344 27° Northeast 371 427 37,000  Level Jacksonville Center
08:37PM 32.5147 -79.8772 27° Northeast 371 427 37,000  Level Jacksonville Center
08:38PM 32.6028 -79.8053 35° Northeast 371 427 37,000  Level Jacksonville Center
08:39PM 32.6931 -79.7381 32° Northeast 376 433 37,000  Level Jacksonville Center
08:40PM 32.7831 -79.6681 33° Northeast 381 438 37,000  Level Jacksonville Center
08:41PM 32.8711 -79.5983 34° Northeast 381 438 37,000  Level Jacksonville Center
08:42PM 32.9611 -79.5281 33° Northeast 381 438 37,000  Level Jacksonville Center
08:43PM 33.0469 -79.4603 33° Northeast 381 438 37,000  Level Jacksonville Center
08:44PM 33.1344 -79.3875 35° Northeast 381 438 37,000  Level Jacksonville Center
08:45PM 33.2244 -79.3194 32° Northeast 381 438 37,000  Level Jacksonville Center
08:46PM 33.3081 -79.2517 34° Northeast 376 433 37,000  Level Jacksonville Center
08:47PM 33.3978 -79.1806 33° Northeast 376 433 37,000  Level Jacksonville Center
08:48PM 33.4794 -79.1175 33° Northeast 376 433 37,000  Level Jacksonville Center
08:49PM 33.5669 -79.0464 34° Northeast 364 419 37,000  Level Jacksonville Center
08:50PM 33.6547 -78.9778 33° Northeast 364 419 37,000  Level Jacksonville Center
08:51PM 33.7422 -78.9064 34° Northeast 369 425 37,000  Level Jacksonville Center
08:54PM 33.9339 -78.7531 34° Northeast 375 432 37,000  Level Washington Center
08:55PM 34.0233 -78.6839 33° Northeast 375 432 37,000  Level Washington Center
08:56PM 34.1108 -78.6117 34° Northeast 375 432 37,000  Level Washington Center
08:57PM 34.1981 -78.5397 34° Northeast 375 432 37,000  Level Washington Center
08:58PM 34.2875 -78.4675 34° Northeast 380 437 37,000  Level Washington Center
08:59PM 34.3747 -78.3950 34° Northeast 380 437 37,000  Level Washington Center
09:00PM 34.4661 -78.3225 33° Northeast 380 437 37,000  Level Washington Center
09:01PM 34.5556 -78.2475 35° Northeast 380 437 37,000  Level Washington Center
09:02PM 34.6489 -78.1722 34° Northeast 385 443 37,000  Level Washington Center
09:03PM 34.7275 -78.1039 36° Northeast 391 450 37,000  Level Washington Center
09:04PM 34.8208 -78.0283 34° Northeast 391 450 37,000  Level Washington Center
09:05PM 34.9122 -77.9450 37° Northeast 391 450 37,000  Level Washington Center
09:06PM 35.0075 -77.8742 31° Northeast 391 450 37,000  Level Washington Center
09:07PM 35.1050 -77.8008 32° Northeast 403 464 37,000  Level Washington Center
09:08PM 35.2022 -77.7297 31° Northeast 403 464 37,000  Level Washington Center
09:09PM 35.2994 -77.6561 32° Northeast 403 464 37,000  Level Washington Center
09:10PM 35.4094 -77.5697 33° Northeast 415 478 37,000  Level Washington Center
09:11PM 35.5086 -77.4956 31° Northeast 415 478 37,000  Level Washington Center
09:12PM 35.6100 -77.4186 32° Northeast 420 483 37,000  Level Washington Center
09:13PM 35.7092 -77.3417 32° Northeast 420 483 37,000  Level Washington Center
09:14PM 35.8106 -77.2644 32° Northeast 420 483 37,000  Level Washington Center
09:15PM 35.9117 -77.1847 33° Northeast 420 483 37,000  Level Washington Center
09:16PM 36.0089 -77.1069 33° Northeast 420 483 37,000  Level Washington Center
09:17PM 36.1119 -77.0292 31° Northeast 420 483 37,000  Level Washington Center
09:18PM 36.2150 -76.9486 32° Northeast 425 489 37,000  Level Washington Center
09:19PM 36.3183 -76.8681 32° Northeast 430 495 37,000  Level Washington Center
09:20PM 36.4214 -76.7869 32° Northeast 435 501 37,000  Level Washington Center
09:21PM 36.5139 -76.7186 31° Northeast 435 501 37,000  Level Washington Center
09:22PM 36.6167 -76.6347 33° Northeast 435 501 37,000  Level Washington Center
09:23PM 36.7322 -76.5406 33° Northeast 435 501 37,000  Level Washington Center
09:24PM 36.8331 -76.4586 33° Northeast 435 501 37,000  Level Washington Center
09:25PM 36.9381 -76.3767 32° Northeast 440 506 37,000  Level Washington Center
09:26PM 37.0386 -76.2917 34° Northeast 435 501 37,000  Level Washington Center
09:27PM 37.1456 -76.2067 32° Northeast 435 501 37,000  Level Washington Center
09:28PM 37.2458 -76.1372 29° Northeast 440 506 37,000  Level Washington Center
09:29PM 37.3483 -76.0517 34° Northeast 445 512 37,000  Level Washington Center
09:30PM 37.4531 -75.9686 32° Northeast 445 512 37,000  Level Washington Center
09:31PM 37.5556 -75.8825 34° Northeast 439 505 37,000  Level Washington Center
09:32PM 37.6600 -75.7964 33° Northeast 439 505 37,000  Level Washington Center
09:33PM 37.7622 -75.7153 32° Northeast 439 505 37,000  Level Washington Center
09:34PM 37.8644 -75.6261 35° Northeast 434 499 37,000  Level Washington Center
09:35PM 37.9686 -75.5444 32° Northeast 434 499 37,000  Level Washington Center
09:36PM 38.0750 -75.4625 31° Northeast 434 499 37,000  Level Washington Center
09:37PM 38.1833 -75.3883 28° Northeast 434 499 37,000  Level Washington Center
09:38PM 38.2958 -75.3192 26° Northeast 434 499 37,000  Level Washington Center
09:39PM 38.4042 -75.2500 27° Northeast 434 499 37,000  Level Washington Center
09:40PM 38.5144 -75.1806 26° Northeast 434 499 37,000  Level Washington Center
09:41PM 38.6244 -75.1028 29° Northeast 434 499 37,000  Level Washington Center
09:42PM 38.7369 -75.0381 24° Northeast 434 499 37,000 -60 Level Washington Center
09:43PM 38.8469 -74.9653 27° Northeast 439 505 36,900 -780 Descending Washington Center
09:44PM 38.9592 -74.8922 27° Northeast 439 505 35,500 -1,560 Descending Washington Center
09:45PM 39.0711 -74.8189 27° Northeast 444 511 33,900 -1,680 Descending Washington Center
09:46PM 39.1728 -74.7242 36° Northeast 449 517 32,300 -1,800 Descending Washington Center
09:47PM 39.2700 -74.6211 39° Northeast 449 517 30,400 -1,980 Descending Washington Center
09:48PM 39.3692 -74.5206 38° Northeast 449 517 28,400 -2,100 Descending Washington Center
09:50PM 39.5533 -74.3275 39° Northeast 440 506 24,400 -1,560 Descending New York Center
09:51PM 39.6439 -74.2325 39° Northeast 427 491 24,000 -300 Descending New York Center
09:52PM 39.7342 -74.1369 39° Northeast 427 491 23,900 -840 Descending New York Center
09:53PM 39.8286 -74.0389 39° Northeast 422 486 22,400 -1,500 Descending New York Center
09:54PM 39.9189 -73.9431 39° Northeast 422 486 20,900 -1,500 Descending New York Center
09:55PM 40.0069 -73.8467 40° Northeast 416 479 19,400 -1,200 Descending New York Center
09:57PM 40.2081 -73.6356 39° Northeast 386 444 16,900 -720 Descending Boston Center
09:58PM 40.3167 -73.5167 40° Northeast 390 449 17,000  Climbing New York TRACON
09:59PM 40.4167 -73.4500 27° Northeast 391 450 17,000  Level New York TRACON
10:00PM 40.5167 -73.4000 21° North 390 449 17,000 -780 Level New York TRACON
10:01PM 40.6167 -73.3667 14° North 386 444 15,500 -1,080 Descending New York TRACON
10:02PM 40.7167 -73.3333 14° North 373 429 14,900 -420 Descending New York TRACON
10:03PM 40.8000 -73.2833 24° Northeast 320 368 14,700 -780 Descending New York TRACON
10:04PM 40.8500 -73.1833 57° Northeast 318 366 13,400 -1,500 Descending New York TRACON
10:05PM 40.9000 -73.0833 56° Northeast 308 354 11,600 -1,860 Descending New York TRACON
10:06PM 40.9500 -73.0167 45° Northeast 281 323 9,600 -2,040 Descending New York TRACON
10:07PM 41.0167 -73.0500 339° North 273 314 7,800 -2,100 Descending New York TRACON
10:08PM 41.0667 -73.1333 309° West 272 313 5,500 -1,740 Descending New York TRACON
10:09PM 41.0833 -73.2167 285° West 257 296 4,400 -840 Descending New York TRACON
10:10PM 41.1167 -73.3000 298° West 254 292 4,000 -240 Descending New York TRACON
10:11PM 41.1333 -73.3833 285° West 236 272 4,000 -60 Level New York TRACON
10:12PM 41.1500 -73.4833 283° West 233 268 3,900 -480 Descending New York TRACON
10:13PM 41.1667 -73.5500 288° West 209 241 3,000 -600 Descending New York TRACON
10:14PM 41.1667 -73.6167 270° West 195 224 2,700 -540 Descending New York TRACON
10:15PM 41.1667 -73.7000 270° West 186 214 2,000 -360 Descending New York TRACON
10:16PM 41.1667 -73.7667 270° West 177 204 2,000 -120 Level New York TRACON
10:17PM 41.1333 -73.7667 180° South 151 174 1,800 -420 Descending New York TRACON
10:18PM 41.1000 -73.7333 143° Southeast 135 155 1,200 -660 Descending New York TRACON
10:19PM 41.0833 -73.7167 143° Southeast 125 144 600 -600 Descending New York TRACON